sensor_id;sensor_type;location;lat;lon;timestamp;temperature;humidity
32446;DHT22;18899;50.748;7.102;2022-07-24T00:01:41;19.10;99.90
32446;DHT22;18899;50.748;7.102;2022-07-24T00:04:07;19.00;99.90
32446;DHT22;18899;50.748;7.102;2022-07-24T00:06:33;18.90;99.90
32446;DHT22;18899;50.748;7.102;2022-07-24T00:08:59;18.80;99.90
32446;DHT22;18899;50.748;7.102;2022-07-24T00:11:24;18.70;99.90
32446;DHT22;18899;50.748;7.102;2022-07-24T00:13:50;18.70;99.90
32446;DHT22;18899;50.748;7.102;2022-07-24T00:16:16;18.60;99.90
32446;DHT22;18899;50.748;7.102;2022-07-24T00:18:42;18.50;99.90
32446;DHT22;18899;50.748;7.102;2022-07-24T00:21:07;18.50;99.90
32446;DHT22;18899;50.748;7.102;2022-07-24T00:23:33;18.40;99.90
32446;DHT22;18899;50.748;7.102;2022-07-24T00:25:58;18.30;99.90
32446;DHT22;18899;50.748;7.102;2022-07-24T00:28:24;18.30;99.90
32446;DHT22;18899;50.748;7.102;2022-07-24T00:30:50;18.30;99.90
32446;DHT22;18899;50.748;7.102;2022-07-24T00:33:16;18.30;99.90
32446;DHT22;18899;50.748;7.102;2022-07-24T00:35:43;18.40;99.90
32446;DHT22;18899;50.748;7.102;2022-07-24T00:38:09;18.30;99.90
32446;DHT22;18899;50.748;7.102;2022-07-24T00:40:35;18.20;99.90
32446;DHT22;18899;50.748;7.102;2022-07-24T00:43:02;18.10;99.90
32446;DHT22;18899;50.748;7.102;2022-07-24T00:45:28;18.00;99.90
32446;DHT22;18899;50.748;7.102;2022-07-24T00:47:53;18.00;99.90
32446;DHT22;18899;50.748;7.102;2022-07-24T00:50:19;17.90;99.90
32446;DHT22;18899;50.748;7.102;2022-07-24T00:52:45;17.90;99.90
32446;DHT22;18899;50.748;7.102;2022-07-24T00:55:11;17.90;99.90
32446;DHT22;18899;50.748;7.102;2022-07-24T00:57:37;17.90;99.90
32446;DHT22;18899;50.748;7.102;2022-07-24T01:00:07;18.00;99.90
32446;DHT22;18899;50.748;7.102;2022-07-24T01:02:33;18.00;99.90
32446;DHT22;18899;50.748;7.102;2022-07-24T01:04:59;18.00;99.90
32446;DHT22;18899;50.748;7.102;2022-07-24T01:07:24;18.10;99.90
32446;DHT22;18899;50.748;7.102;2022-07-24T01:09:51;18.20;99.90
32446;DHT22;18899;50.748;7.102;2022-07-24T01:12:17;18.20;99.90
32446;DHT22;18899;50.748;7.102;2022-07-24T01:14:43;18.10;99.90
32446;DHT22;18899;50.748;7.102;2022-07-24T01:17:09;18.20;99.90
32446;DHT22;18899;50.748;7.102;2022-07-24T01:19:35;18.10;99.90
32446;DHT22;18899;50.748;7.102;2022-07-24T01:22:00;18.10;99.90
32446;DHT22;18899;50.748;7.102;2022-07-24T01:24:26;18.00;99.90
32446;DHT22;18899;50.748;7.102;2022-07-24T01:26:52;18.00;99.90
32446;DHT22;18899;50.748;7.102;2022-07-24T01:29:17;18.00;99.90
32446;DHT22;18899;50.748;7.102;2022-07-24T01:31:43;18.00;99.90
32446;DHT22;18899;50.748;7.102;2022-07-24T01:34:09;17.90;99.90
32446;DHT22;18899;50.748;7.102;2022-07-24T01:36:34;17.80;99.90
32446;DHT22;18899;50.748;7.102;2022-07-24T01:39:00;17.80;99.90
32446;DHT22;18899;50.748;7.102;2022-07-24T01:41:25;17.90;99.90
32446;DHT22;18899;50.748;7.102;2022-07-24T01:43:51;17.90;99.90
32446;DHT22;18899;50.748;7.102;2022-07-24T01:46:16;17.90;99.90
32446;DHT22;18899;50.748;7.102;2022-07-24T01:48:42;17.80;99.90
32446;DHT22;18899;50.748;7.102;2022-07-24T01:51:08;17.80;99.90
32446;DHT22;18899;50.748;7.102;2022-07-24T01:53:34;17.80;99.90
32446;DHT22;18899;50.748;7.102;2022-07-24T01:56:00;17.80;99.90
32446;DHT22;18899;50.748;7.102;2022-07-24T01:58:26;17.70;99.90
32446;DHT22;18899;50.748;7.102;2022-07-24T02:00:52;17.60;99.90
32446;DHT22;18899;50.748;7.102;2022-07-24T02:03:18;17.60;99.90
32446;DHT22;18899;50.748;7.102;2022-07-24T02:05:44;17.50;99.90
32446;DHT22;18899;50.748;7.102;2022-07-24T02:08:09;17.40;99.90
32446;DHT22;18899;50.748;7.102;2022-07-24T02:10:35;17.40;99.90
32446;DHT22;18899;50.748;7.102;2022-07-24T02:13:01;17.30;99.90
32446;DHT22;18899;50.748;7.102;2022-07-24T02:15:26;17.30;99.90
32446;DHT22;18899;50.748;7.102;2022-07-24T02:17:57;17.30;99.90
32446;DHT22;18899;50.748;7.102;2022-07-24T02:20:23;17.20;99.90
32446;DHT22;18899;50.748;7.102;2022-07-24T02:22:49;17.20;99.90
32446;DHT22;18899;50.748;7.102;2022-07-24T02:25:15;17.20;99.90
32446;DHT22;18899;50.748;7.102;2022-07-24T02:27:40;17.20;99.90
32446;DHT22;18899;50.748;7.102;2022-07-24T02:30:09;17.20;99.90
32446;DHT22;18899;50.748;7.102;2022-07-24T02:32:36;17.10;99.90
32446;DHT22;18899;50.748;7.102;2022-07-24T02:35:02;17.10;99.90
32446;DHT22;18899;50.748;7.102;2022-07-24T02:37:28;17.10;99.90
32446;DHT22;18899;50.748;7.102;2022-07-24T02:39:53;17.20;99.90
32446;DHT22;18899;50.748;7.102;2022-07-24T02:42:19;17.20;99.90
32446;DHT22;18899;50.748;7.102;2022-07-24T02:44:45;17.30;99.90
32446;DHT22;18899;50.748;7.102;2022-07-24T02:47:10;17.40;99.90
32446;DHT22;18899;50.748;7.102;2022-07-24T02:49:36;17.40;99.90
32446;DHT22;18899;50.748;7.102;2022-07-24T02:52:02;17.40;99.90
32446;DHT22;18899;50.748;7.102;2022-07-24T02:54:28;17.30;99.90
32446;DHT22;18899;50.748;7.102;2022-07-24T02:56:54;17.30;99.90
32446;DHT22;18899;50.748;7.102;2022-07-24T02:59:20;17.30;99.90
32446;DHT22;18899;50.748;7.102;2022-07-24T03:01:45;17.30;99.90
32446;DHT22;18899;50.748;7.102;2022-07-24T03:04:11;17.40;99.90
32446;DHT22;18899;50.748;7.102;2022-07-24T03:06:37;17.40;99.90
32446;DHT22;18899;50.748;7.102;2022-07-24T03:09:03;17.40;99.90
32446;DHT22;18899;50.748;7.102;2022-07-24T03:11:28;17.30;99.90
32446;DHT22;18899;50.748;7.102;2022-07-24T03:13:54;17.30;99.90
32446;DHT22;18899;50.748;7.102;2022-07-24T03:16:20;17.30;99.90
32446;DHT22;18899;50.748;7.102;2022-07-24T03:18:45;17.30;99.90
32446;DHT22;18899;50.748;7.102;2022-07-24T03:21:14;17.30;99.90
32446;DHT22;18899;50.748;7.102;2022-07-24T03:23:40;17.20;99.90
32446;DHT22;18899;50.748;7.102;2022-07-24T03:26:05;17.20;99.90
32446;DHT22;18899;50.748;7.102;2022-07-24T03:28:31;17.10;99.90
32446;DHT22;18899;50.748;7.102;2022-07-24T03:30:56;17.10;99.90
32446;DHT22;18899;50.748;7.102;2022-07-24T03:33:22;17.20;99.90
32446;DHT22;18899;50.748;7.102;2022-07-24T03:35:47;17.10;99.90
32446;DHT22;18899;50.748;7.102;2022-07-24T03:38:13;17.20;99.90
32446;DHT22;18899;50.748;7.102;2022-07-24T03:40:39;17.40;99.90
32446;DHT22;18899;50.748;7.102;2022-07-24T03:43:04;17.40;99.90
32446;DHT22;18899;50.748;7.102;2022-07-24T03:45:30;17.40;99.90
32446;DHT22;18899;50.748;7.102;2022-07-24T03:47:55;17.40;99.90
32446;DHT22;18899;50.748;7.102;2022-07-24T03:50:21;17.30;99.90
32446;DHT22;18899;50.748;7.102;2022-07-24T03:52:46;17.20;99.90
32446;DHT22;18899;50.748;7.102;2022-07-24T03:55:12;17.10;99.90
32446;DHT22;18899;50.748;7.102;2022-07-24T03:57:37;17.10;99.90
32446;DHT22;18899;50.748;7.102;2022-07-24T04:00:05;17.10;99.90
32446;DHT22;18899;50.748;7.102;2022-07-24T04:02:30;17.10;99.90
32446;DHT22;18899;50.748;7.102;2022-07-24T04:04:56;17.10;99.90
32446;DHT22;18899;50.748;7.102;2022-07-24T04:07:22;17.20;99.90
32446;DHT22;18899;50.748;7.102;2022-07-24T04:09:47;17.30;99.90
32446;DHT22;18899;50.748;7.102;2022-07-24T04:12:13;17.40;99.90
32446;DHT22;18899;50.748;7.102;2022-07-24T04:14:39;17.40;99.90
32446;DHT22;18899;50.748;7.102;2022-07-24T04:17:05;17.40;99.90
32446;DHT22;18899;50.748;7.102;2022-07-24T04:19:31;17.50;99.90
32446;DHT22;18899;50.748;7.102;2022-07-24T04:21:57;17.50;99.90
32446;DHT22;18899;50.748;7.102;2022-07-24T04:24:23;17.50;99.90
32446;DHT22;18899;50.748;7.102;2022-07-24T04:26:48;17.60;99.90
32446;DHT22;18899;50.748;7.102;2022-07-24T04:29:14;17.70;99.90
32446;DHT22;18899;50.748;7.102;2022-07-24T04:31:39;17.80;99.90
32446;DHT22;18899;50.748;7.102;2022-07-24T04:34:05;18.00;99.90
32446;DHT22;18899;50.748;7.102;2022-07-24T04:36:31;18.10;99.90
32446;DHT22;18899;50.748;7.102;2022-07-24T04:38:56;18.20;99.90
32446;DHT22;18899;50.748;7.102;2022-07-24T04:41:22;18.20;99.90
32446;DHT22;18899;50.748;7.102;2022-07-24T04:43:48;18.20;99.90
32446;DHT22;18899;50.748;7.102;2022-07-24T04:46:15;18.30;99.90
32446;DHT22;18899;50.748;7.102;2022-07-24T04:48:40;18.30;99.90
32446;DHT22;18899;50.748;7.102;2022-07-24T04:51:06;18.30;99.90
32446;DHT22;18899;50.748;7.102;2022-07-24T04:53:31;18.40;99.90
32446;DHT22;18899;50.748;7.102;2022-07-24T04:55:57;18.40;99.90
32446;DHT22;18899;50.748;7.102;2022-07-24T04:58:23;18.50;99.90
32446;DHT22;18899;50.748;7.102;2022-07-24T05:00:48;18.60;99.90
32446;DHT22;18899;50.748;7.102;2022-07-24T05:03:14;18.80;99.90
32446;DHT22;18899;50.748;7.102;2022-07-24T05:05:40;18.90;99.90
32446;DHT22;18899;50.748;7.102;2022-07-24T05:08:05;19.10;99.90
32446;DHT22;18899;50.748;7.102;2022-07-24T05:10:31;19.30;99.90
32446;DHT22;18899;50.748;7.102;2022-07-24T05:12:56;19.40;99.90
32446;DHT22;18899;50.748;7.102;2022-07-24T05:15:22;19.30;99.90
32446;DHT22;18899;50.748;7.102;2022-07-24T05:17:48;19.40;99.90
32446;DHT22;18899;50.748;7.102;2022-07-24T05:20:13;19.50;99.90
32446;DHT22;18899;50.748;7.102;2022-07-24T05:22:39;19.70;99.90
32446;DHT22;18899;50.748;7.102;2022-07-24T05:25:05;20.00;99.90
32446;DHT22;18899;50.748;7.102;2022-07-24T05:27:31;20.60;99.90
32446;DHT22;18899;50.748;7.102;2022-07-24T05:29:56;21.10;99.90
32446;DHT22;18899;50.748;7.102;2022-07-24T05:32:22;21.50;99.90
32446;DHT22;18899;50.748;7.102;2022-07-24T05:34:47;21.70;99.90
32446;DHT22;18899;50.748;7.102;2022-07-24T05:37:13;21.90;99.90
32446;DHT22;18899;50.748;7.102;2022-07-24T05:39:38;22.00;99.90
32446;DHT22;18899;50.748;7.102;2022-07-24T05:42:04;22.10;99.90
32446;DHT22;18899;50.748;7.102;2022-07-24T05:44:30;22.40;99.90
32446;DHT22;18899;50.748;7.102;2022-07-24T05:46:55;22.40;99.90
32446;DHT22;18899;50.748;7.102;2022-07-24T05:49:21;22.40;99.90
32446;DHT22;18899;50.748;7.102;2022-07-24T05:51:46;22.30;99.90
32446;DHT22;18899;50.748;7.102;2022-07-24T05:54:12;22.30;99.90
32446;DHT22;18899;50.748;7.102;2022-07-24T05:56:37;22.30;99.90
32446;DHT22;18899;50.748;7.102;2022-07-24T05:59:03;22.40;99.90
32446;DHT22;18899;50.748;7.102;2022-07-24T06:01:28;22.40;99.90
32446;DHT22;18899;50.748;7.102;2022-07-24T06:03:54;22.60;99.90
32446;DHT22;18899;50.748;7.102;2022-07-24T06:06:20;22.70;99.90
32446;DHT22;18899;50.748;7.102;2022-07-24T06:08:45;23.00;99.90
32446;DHT22;18899;50.748;7.102;2022-07-24T06:11:11;23.40;99.90
32446;DHT22;18899;50.748;7.102;2022-07-24T06:13:37;23.80;99.90
32446;DHT22;18899;50.748;7.102;2022-07-24T06:16:03;24.50;99.90
32446;DHT22;18899;50.748;7.102;2022-07-24T06:18:29;25.10;99.90
32446;DHT22;18899;50.748;7.102;2022-07-24T06:20:54;25.70;99.90
32446;DHT22;18899;50.748;7.102;2022-07-24T06:23:20;26.50;97.50
32446;DHT22;18899;50.748;7.102;2022-07-24T06:25:45;27.30;91.40
32446;DHT22;18899;50.748;7.102;2022-07-24T06:28:11;28.00;86.00
32446;DHT22;18899;50.748;7.102;2022-07-24T06:30:36;28.90;77.30
32446;DHT22;18899;50.748;7.102;2022-07-24T06:33:02;29.50;75.00
32446;DHT22;18899;50.748;7.102;2022-07-24T06:35:28;30.30;70.40
32446;DHT22;18899;50.748;7.102;2022-07-24T06:37:54;31.00;64.50
32446;DHT22;18899;50.748;7.102;2022-07-24T06:40:21;31.90;60.40
32446;DHT22;18899;50.748;7.102;2022-07-24T06:42:47;32.30;58.50
32446;DHT22;18899;50.748;7.102;2022-07-24T06:45:13;32.70;56.40
32446;DHT22;18899;50.748;7.102;2022-07-24T06:47:40;33.00;55.20
32446;DHT22;18899;50.748;7.102;2022-07-24T06:50:06;33.40;53.40
32446;DHT22;18899;50.748;7.102;2022-07-24T06:52:32;33.60;52.00
32446;DHT22;18899;50.748;7.102;2022-07-24T06:54:58;33.60;52.30
32446;DHT22;18899;50.748;7.102;2022-07-24T06:57:24;33.70;51.90
32446;DHT22;18899;50.748;7.102;2022-07-24T06:59:51;34.50;49.20
32446;DHT22;18899;50.748;7.102;2022-07-24T07:02:18;34.50;49.00
32446;DHT22;18899;50.748;7.102;2022-07-24T07:04:43;34.50;48.90
32446;DHT22;18899;50.748;7.102;2022-07-24T07:07:09;34.60;49.70
32446;DHT22;18899;50.748;7.102;2022-07-24T07:09:34;35.10;48.50
32446;DHT22;18899;50.748;7.102;2022-07-24T07:12:01;35.80;46.40
32446;DHT22;18899;50.748;7.102;2022-07-24T07:14:27;35.80;45.40
32446;DHT22;18899;50.748;7.102;2022-07-24T07:16:52;35.60;46.50
32446;DHT22;18899;50.748;7.102;2022-07-24T07:19:18;35.90;47.10
32446;DHT22;18899;50.748;7.102;2022-07-24T07:21:44;35.80;46.20
32446;DHT22;18899;50.748;7.102;2022-07-24T07:24:09;36.20;44.60
32446;DHT22;18899;50.748;7.102;2022-07-24T07:26:35;36.70;44.80
32446;DHT22;18899;50.748;7.102;2022-07-24T07:29:00;37.30;43.60
32446;DHT22;18899;50.748;7.102;2022-07-24T07:31:26;37.50;41.70
32446;DHT22;18899;50.748;7.102;2022-07-24T07:33:53;37.70;42.50
32446;DHT22;18899;50.748;7.102;2022-07-24T07:36:19;37.80;42.30
32446;DHT22;18899;50.748;7.102;2022-07-24T07:38:45;37.60;42.40
32446;DHT22;18899;50.748;7.102;2022-07-24T07:41:10;37.60;42.10
32446;DHT22;18899;50.748;7.102;2022-07-24T07:43:36;37.00;42.30
32446;DHT22;18899;50.748;7.102;2022-07-24T07:46:01;37.50;41.50
32446;DHT22;18899;50.748;7.102;2022-07-24T07:48:27;38.00;41.90
32446;DHT22;18899;50.748;7.102;2022-07-24T07:50:53;38.70;39.50
32446;DHT22;18899;50.748;7.102;2022-07-24T07:53:19;39.00;39.50
32446;DHT22;18899;50.748;7.102;2022-07-24T07:55:45;39.00;39.80
32446;DHT22;18899;50.748;7.102;2022-07-24T07:58:14;39.10;40.30
32446;DHT22;18899;50.748;7.102;2022-07-24T08:00:39;39.00;38.60
32446;DHT22;18899;50.748;7.102;2022-07-24T08:03:05;38.90;40.00
32446;DHT22;18899;50.748;7.102;2022-07-24T08:05:30;39.00;38.80
32446;DHT22;18899;50.748;7.102;2022-07-24T08:07:56;39.20;38.60
32446;DHT22;18899;50.748;7.102;2022-07-24T08:10:22;39.10;38.90
32446;DHT22;18899;50.748;7.102;2022-07-24T08:12:48;39.20;38.00
32446;DHT22;18899;50.748;7.102;2022-07-24T08:15:13;39.10;37.60
32446;DHT22;18899;50.748;7.102;2022-07-24T08:17:39;38.80;39.50
32446;DHT22;18899;50.748;7.102;2022-07-24T08:20:05;38.50;39.00
32446;DHT22;18899;50.748;7.102;2022-07-24T08:22:30;38.40;39.00
32446;DHT22;18899;50.748;7.102;2022-07-24T08:24:56;38.30;39.70
32446;DHT22;18899;50.748;7.102;2022-07-24T08:27:21;38.30;39.90
32446;DHT22;18899;50.748;7.102;2022-07-24T08:29:47;38.20;40.40
32446;DHT22;18899;50.748;7.102;2022-07-24T08:32:13;38.10;40.00
32446;DHT22;18899;50.748;7.102;2022-07-24T08:34:39;37.90;39.90
32446;DHT22;18899;50.748;7.102;2022-07-24T08:37:04;37.60;39.90
32446;DHT22;18899;50.748;7.102;2022-07-24T08:39:30;37.30;41.30
32446;DHT22;18899;50.748;7.102;2022-07-24T08:41:56;37.80;42.50
32446;DHT22;18899;50.748;7.102;2022-07-24T08:44:21;38.10;41.50
32446;DHT22;18899;50.748;7.102;2022-07-24T08:46:48;38.70;38.90
32446;DHT22;18899;50.748;7.102;2022-07-24T08:49:15;38.80;39.40
32446;DHT22;18899;50.748;7.102;2022-07-24T08:51:42;39.00;38.90
32446;DHT22;18899;50.748;7.102;2022-07-24T08:54:10;39.20;37.70
32446;DHT22;18899;50.748;7.102;2022-07-24T08:56:39;39.00;38.30
32446;DHT22;18899;50.748;7.102;2022-07-24T08:59:14;39.40;39.80
32446;DHT22;18899;50.748;7.102;2022-07-24T09:01:40;39.30;39.20
32446;DHT22;18899;50.748;7.102;2022-07-24T09:04:06;39.60;38.40
32446;DHT22;18899;50.748;7.102;2022-07-24T09:06:31;39.50;38.70
32446;DHT22;18899;50.748;7.102;2022-07-24T09:08:59;39.70;37.70
32446;DHT22;18899;50.748;7.102;2022-07-24T09:11:25;39.50;38.80
32446;DHT22;18899;50.748;7.102;2022-07-24T09:13:51;40.40;36.00
32446;DHT22;18899;50.748;7.102;2022-07-24T09:16:36;41.20;35.00
32446;DHT22;18899;50.748;7.102;2022-07-24T09:19:05;41.60;36.80
32446;DHT22;18899;50.748;7.102;2022-07-24T09:21:39;41.60;34.70
32446;DHT22;18899;50.748;7.102;2022-07-24T09:24:15;41.50;33.90
32446;DHT22;18899;50.748;7.102;2022-07-24T09:26:45;41.40;35.50
32446;DHT22;18899;50.748;7.102;2022-07-24T09:29:11;41.20;35.70
32446;DHT22;18899;50.748;7.102;2022-07-24T09:32:09;41.10;36.20
32446;DHT22;18899;50.748;7.102;2022-07-24T09:34:39;41.40;34.20
32446;DHT22;18899;50.748;7.102;2022-07-24T09:37:08;41.20;37.50
32446;DHT22;18899;50.748;7.102;2022-07-24T09:39:36;41.60;34.10
32446;DHT22;18899;50.748;7.102;2022-07-24T09:42:04;41.60;35.10
32446;DHT22;18899;50.748;7.102;2022-07-24T09:44:30;41.80;33.60
32446;DHT22;18899;50.748;7.102;2022-07-24T09:47:04;41.20;34.20
32446;DHT22;18899;50.748;7.102;2022-07-24T09:49:31;41.10;35.90
32446;DHT22;18899;50.748;7.102;2022-07-24T09:52:13;41.00;35.40
32446;DHT22;18899;50.748;7.102;2022-07-24T09:54:46;40.60;36.00
32446;DHT22;18899;50.748;7.102;2022-07-24T09:57:23;40.70;34.00
32446;DHT22;18899;50.748;7.102;2022-07-24T09:59:57;40.60;36.30
32446;DHT22;18899;50.748;7.102;2022-07-24T10:02:28;40.60;35.80
32446;DHT22;18899;50.748;7.102;2022-07-24T10:04:55;40.20;38.10
32446;DHT22;18899;50.748;7.102;2022-07-24T10:07:23;39.20;37.10
32446;DHT22;18899;50.748;7.102;2022-07-24T10:09:50;38.30;38.20
32446;DHT22;18899;50.748;7.102;2022-07-24T10:12:22;38.60;37.40
32446;DHT22;18899;50.748;7.102;2022-07-24T10:14:49;38.80;38.90
32446;DHT22;18899;50.748;7.102;2022-07-24T10:17:16;38.30;40.30
32446;DHT22;18899;50.748;7.102;2022-07-24T10:19:44;38.10;38.60
32446;DHT22;18899;50.748;7.102;2022-07-24T10:22:18;38.70;38.00
32446;DHT22;18899;50.748;7.102;2022-07-24T10:25:05;38.90;37.90
32446;DHT22;18899;50.748;7.102;2022-07-24T10:27:33;38.60;37.10
32446;DHT22;18899;50.748;7.102;2022-07-24T10:30:03;37.80;38.20
32446;DHT22;18899;50.748;7.102;2022-07-24T10:32:30;37.30;38.70
32446;DHT22;18899;50.748;7.102;2022-07-24T10:55:49;37.40;38.00
32446;DHT22;18899;50.748;7.102;2022-07-24T10:58:15;37.00;39.80
32446;DHT22;18899;50.748;7.102;2022-07-24T11:00:49;36.20;38.20
32446;DHT22;18899;50.748;7.102;2022-07-24T11:03:22;35.40;40.00
32446;DHT22;18899;50.748;7.102;2022-07-24T11:06:09;34.50;45.30
32446;DHT22;18899;50.748;7.102;2022-07-24T11:11:14;32.90;47.00
32446;DHT22;18899;50.748;7.102;2022-07-24T11:13:42;32.50;44.80
32446;DHT22;18899;50.748;7.102;2022-07-24T11:18:38;31.80;46.50
32446;DHT22;18899;50.748;7.102;2022-07-24T11:21:04;31.80;47.50
32446;DHT22;18899;50.748;7.102;2022-07-24T11:23:30;31.70;48.10
32446;DHT22;18899;50.748;7.102;2022-07-24T11:29:16;31.60;47.10
32446;DHT22;18899;50.748;7.102;2022-07-24T11:31:47;31.40;45.30
32446;DHT22;18899;50.748;7.102;2022-07-24T11:34:13;31.20;46.70
32446;DHT22;18899;50.748;7.102;2022-07-24T11:36:45;31.00;48.40
32446;DHT22;18899;50.748;7.102;2022-07-24T11:39:16;30.90;50.80
32446;DHT22;18899;50.748;7.102;2022-07-24T11:41:46;31.00;49.80
32446;DHT22;18899;50.748;7.102;2022-07-24T11:44:21;31.00;46.10
32446;DHT22;18899;50.748;7.102;2022-07-24T11:46:47;30.80;49.10
32446;DHT22;18899;50.748;7.102;2022-07-24T11:49:13;30.80;48.60
32446;DHT22;18899;50.748;7.102;2022-07-24T11:51:44;30.70;47.60
32446;DHT22;18899;50.748;7.102;2022-07-24T11:54:11;30.60;48.60
32446;DHT22;18899;50.748;7.102;2022-07-24T11:56:36;30.70;48.30
32446;DHT22;18899;50.748;7.102;2022-07-24T11:59:02;30.70;48.90
32446;DHT22;18899;50.748;7.102;2022-07-24T12:01:28;30.60;47.50
32446;DHT22;18899;50.748;7.102;2022-07-24T12:03:59;30.60;47.30
32446;DHT22;18899;50.748;7.102;2022-07-24T12:06:25;30.60;47.20
32446;DHT22;18899;50.748;7.102;2022-07-24T12:08:55;30.60;49.50
32446;DHT22;18899;50.748;7.102;2022-07-24T12:11:22;30.60;46.80
32446;DHT22;18899;50.748;7.102;2022-07-24T12:13:48;30.70;50.10
32446;DHT22;18899;50.748;7.102;2022-07-24T12:16:23;30.70;50.00
32446;DHT22;18899;50.748;7.102;2022-07-24T12:18:48;30.80;49.80
32446;DHT22;18899;50.748;7.102;2022-07-24T12:21:14;30.80;50.90
32446;DHT22;18899;50.748;7.102;2022-07-24T12:23:40;30.80;46.30
32446;DHT22;18899;50.748;7.102;2022-07-24T12:26:06;30.70;45.30
32446;DHT22;18899;50.748;7.102;2022-07-24T12:28:32;30.60;49.20
32446;DHT22;18899;50.748;7.102;2022-07-24T12:30:57;30.60;46.20
32446;DHT22;18899;50.748;7.102;2022-07-24T12:33:30;30.70;48.10
32446;DHT22;18899;50.748;7.102;2022-07-24T12:36:03;30.70;47.50
32446;DHT22;18899;50.748;7.102;2022-07-24T12:41:16;30.80;46.70
32446;DHT22;18899;50.748;7.102;2022-07-24T12:43:52;30.80;46.80
32446;DHT22;18899;50.748;7.102;2022-07-24T12:46:21;30.80;47.20
32446;DHT22;18899;50.748;7.102;2022-07-24T12:48:59;30.90;47.10
32446;DHT22;18899;50.748;7.102;2022-07-24T12:51:25;30.90;46.40
32446;DHT22;18899;50.748;7.102;2022-07-24T12:53:55;31.00;49.50
32446;DHT22;18899;50.748;7.102;2022-07-24T12:56:21;31.00;48.70
32446;DHT22;18899;50.748;7.102;2022-07-24T12:58:54;31.10;46.40
32446;DHT22;18899;50.748;7.102;2022-07-24T13:01:21;31.10;46.10
32446;DHT22;18899;50.748;7.102;2022-07-24T13:03:59;31.20;45.80
32446;DHT22;18899;50.748;7.102;2022-07-24T13:06:36;31.20;46.70
32446;DHT22;18899;50.748;7.102;2022-07-24T13:09:03;31.20;44.50
32446;DHT22;18899;50.748;7.102;2022-07-24T13:11:29;31.20;46.40
32446;DHT22;18899;50.748;7.102;2022-07-24T13:13:55;31.00;47.70
32446;DHT22;18899;50.748;7.102;2022-07-24T13:16:20;31.00;47.00
32446;DHT22;18899;50.748;7.102;2022-07-24T13:18:46;31.00;46.50
32446;DHT22;18899;50.748;7.102;2022-07-24T13:21:11;31.00;46.90
32446;DHT22;18899;50.748;7.102;2022-07-24T13:23:37;30.90;45.50
32446;DHT22;18899;50.748;7.102;2022-07-24T13:26:02;30.70;47.20
32446;DHT22;18899;50.748;7.102;2022-07-24T13:28:28;30.70;48.00
32446;DHT22;18899;50.748;7.102;2022-07-24T13:30:54;30.70;47.40
32446;DHT22;18899;50.748;7.102;2022-07-24T13:33:19;30.70;47.00
32446;DHT22;18899;50.748;7.102;2022-07-24T13:35:45;30.80;47.70
32446;DHT22;18899;50.748;7.102;2022-07-24T13:38:10;30.70;47.90
32446;DHT22;18899;50.748;7.102;2022-07-24T13:40:36;30.80;47.80
32446;DHT22;18899;50.748;7.102;2022-07-24T13:43:04;30.80;47.60
32446;DHT22;18899;50.748;7.102;2022-07-24T13:45:29;30.80;47.60
32446;DHT22;18899;50.748;7.102;2022-07-24T13:47:55;30.80;46.20
32446;DHT22;18899;50.748;7.102;2022-07-24T13:50:20;30.90;48.10
32446;DHT22;18899;50.748;7.102;2022-07-24T13:52:46;30.80;48.30
32446;DHT22;18899;50.748;7.102;2022-07-24T13:55:11;30.90;47.00
32446;DHT22;18899;50.748;7.102;2022-07-24T13:57:37;30.90;47.00
32446;DHT22;18899;50.748;7.102;2022-07-24T14:00:03;30.80;49.30
32446;DHT22;18899;50.748;7.102;2022-07-24T14:02:29;30.80;47.40
32446;DHT22;18899;50.748;7.102;2022-07-24T14:04:54;30.70;47.30
32446;DHT22;18899;50.748;7.102;2022-07-24T14:07:20;30.70;47.30
32446;DHT22;18899;50.748;7.102;2022-07-24T14:09:45;30.70;47.70
32446;DHT22;18899;50.748;7.102;2022-07-24T14:12:11;30.80;48.40
32446;DHT22;18899;50.748;7.102;2022-07-24T14:14:36;30.80;49.50
32446;DHT22;18899;50.748;7.102;2022-07-24T14:17:02;30.90;46.50
32446;DHT22;18899;50.748;7.102;2022-07-24T14:19:27;30.90;47.20
32446;DHT22;18899;50.748;7.102;2022-07-24T14:21:53;30.90;47.30
32446;DHT22;18899;50.748;7.102;2022-07-24T14:24:19;31.00;46.80
32446;DHT22;18899;50.748;7.102;2022-07-24T14:26:45;31.00;46.90
32446;DHT22;18899;50.748;7.102;2022-07-24T14:29:11;31.00;45.50
32446;DHT22;18899;50.748;7.102;2022-07-24T14:31:37;31.10;46.30
32446;DHT22;18899;50.748;7.102;2022-07-24T14:34:03;31.00;45.60
32446;DHT22;18899;50.748;7.102;2022-07-24T14:36:28;30.90;47.80
32446;DHT22;18899;50.748;7.102;2022-07-24T14:38:54;30.90;49.70
32446;DHT22;18899;50.748;7.102;2022-07-24T14:41:19;30.90;46.90
32446;DHT22;18899;50.748;7.102;2022-07-24T14:43:45;30.80;45.20
32446;DHT22;18899;50.748;7.102;2022-07-24T14:46:10;30.70;45.20
32446;DHT22;18899;50.748;7.102;2022-07-24T14:48:36;30.70;47.60
32446;DHT22;18899;50.748;7.102;2022-07-24T14:51:02;30.70;47.80
32446;DHT22;18899;50.748;7.102;2022-07-24T14:53:27;30.70;45.70
32446;DHT22;18899;50.748;7.102;2022-07-24T14:55:53;30.70;46.10
32446;DHT22;18899;50.748;7.102;2022-07-24T14:58:18;30.70;46.60
32446;DHT22;18899;50.748;7.102;2022-07-24T15:00:44;30.70;48.10
32446;DHT22;18899;50.748;7.102;2022-07-24T15:03:10;30.70;46.30
32446;DHT22;18899;50.748;7.102;2022-07-24T15:05:35;30.80;46.30
32446;DHT22;18899;50.748;7.102;2022-07-24T15:08:01;30.80;45.60
32446;DHT22;18899;50.748;7.102;2022-07-24T15:10:26;30.80;45.90
32446;DHT22;18899;50.748;7.102;2022-07-24T15:12:52;30.80;46.50
32446;DHT22;18899;50.748;7.102;2022-07-24T15:15:18;30.80;46.70
32446;DHT22;18899;50.748;7.102;2022-07-24T15:17:43;30.80;45.20
32446;DHT22;18899;50.748;7.102;2022-07-24T15:20:09;30.70;45.40
32446;DHT22;18899;50.748;7.102;2022-07-24T15:22:35;30.70;46.50
32446;DHT22;18899;50.748;7.102;2022-07-24T15:25:00;30.70;47.30
32446;DHT22;18899;50.748;7.102;2022-07-24T15:27:26;30.60;47.90
32446;DHT22;18899;50.748;7.102;2022-07-24T15:29:51;30.60;48.80
32446;DHT22;18899;50.748;7.102;2022-07-24T15:32:17;30.60;47.40
32446;DHT22;18899;50.748;7.102;2022-07-24T15:34:42;30.70;46.50
32446;DHT22;18899;50.748;7.102;2022-07-24T15:37:08;30.60;45.80
32446;DHT22;18899;50.748;7.102;2022-07-24T15:39:33;30.70;45.80
32446;DHT22;18899;50.748;7.102;2022-07-24T15:41:59;30.70;45.90
32446;DHT22;18899;50.748;7.102;2022-07-24T15:44:24;30.70;47.00
32446;DHT22;18899;50.748;7.102;2022-07-24T15:46:50;30.70;47.40
32446;DHT22;18899;50.748;7.102;2022-07-24T15:49:15;30.60;46.60
32446;DHT22;18899;50.748;7.102;2022-07-24T15:51:41;30.60;45.90
32446;DHT22;18899;50.748;7.102;2022-07-24T15:54:07;30.60;46.30
32446;DHT22;18899;50.748;7.102;2022-07-24T15:56:32;30.60;47.70
32446;DHT22;18899;50.748;7.102;2022-07-24T15:58:58;30.60;48.70